Huvudsida
METAR-TAF:

METAR-TAF

Flygplatser :

Noorvik, Alaska, USA

latitud: 66-49-03N, longitud: 161-01-20W, höjd: 17 m

Aktuellt väderrapport

Denna rapport gjordes för 40 minuter sedan, klockan 12:56 UTC
Vind 8 kt från nord
Temperatur 12°C
Fuktighet 94%
Tryck 996 hPa
Sikt: 16.1 km
Få moln på en höjd av 4000 ft
Brutna moln på en höjd av 8000 ft
Mulet på en höjd av 9000 ft
lätt regn

METAR: PFNO 141256Z AUTO 36008KT 10SM -RA FEW040 BKN080 OVC090 12/11 A2941 RMK AO2 SLP036 P0000 T01220106 $

Tid: 05:36 (13:36 UTC)


TAF: saknas

Aktuella väderrapporter och prognoser från 4000 flygplatser (METAR- och TAF-rapporter).

De tillgängliga stationerna syns som gula och röda prickar på kartan.

För musen över prickarna för att se namnen på stationerna.

Klicka sedan för att få väderrapporter och prognoser.

För att ändra kartan: Klicka på de gröna knapparna med ett svart kors på för att zooma in; den gröna knappen med ett streck på för att zooma ut; eller på de gröna pilarna för angränsande kartor.


METAR-TAF: